createdAt,value
2018-07-12T00:00:32.749Z,15.43
2018-07-12T00:03:00.315Z,15.44
2018-07-12T00:05:27.989Z,15.44
2018-07-12T00:07:55.512Z,15.44
2018-07-12T00:10:23.057Z,15.37
2018-07-12T00:12:52.930Z,15.30
2018-07-12T00:15:20.517Z,15.20
2018-07-12T00:17:50.073Z,15.11
2018-07-12T00:20:17.696Z,14.98
2018-07-12T00:22:45.166Z,14.83
2018-07-12T00:25:12.934Z,14.69
2018-07-12T00:27:40.406Z,14.55
2018-07-12T00:30:07.906Z,14.42
2018-07-12T00:32:35.406Z,14.29
2018-07-12T00:35:02.931Z,14.21
2018-07-12T00:37:30.375Z,14.10
2018-07-12T00:39:59.343Z,14.01
2018-07-12T00:42:28.394Z,13.94
2018-07-12T00:44:56.960Z,13.86
2018-07-12T00:47:29.259Z,13.80
2018-07-12T00:49:56.830Z,13.81
2018-07-12T00:52:24.388Z,14.00
2018-07-12T00:54:51.857Z,14.15
2018-07-12T00:57:19.327Z,14.14
2018-07-12T00:59:46.789Z,14.26
2018-07-12T01:02:14.090Z,14.41
2018-07-12T01:04:41.638Z,14.52
2018-07-12T01:07:09.007Z,14.74
2018-07-12T01:09:36.333Z,14.87
2018-07-12T01:12:03.637Z,14.91
2018-07-12T01:14:31.792Z,14.93
2018-07-12T01:16:59.193Z,14.99
2018-07-12T01:19:26.515Z,15.00
2018-07-12T01:21:53.861Z,15.01
2018-07-12T01:24:21.213Z,15.02
2018-07-12T01:26:48.525Z,15.04
2018-07-12T01:29:15.879Z,15.00
2018-07-12T01:31:43.227Z,14.97
2018-07-12T01:34:10.523Z,14.93
2018-07-12T01:36:37.842Z,14.90
2018-07-12T01:39:06.072Z,14.89
2018-07-12T01:41:33.446Z,14.90
2018-07-12T01:44:00.779Z,14.91
2018-07-12T01:46:28.084Z,14.88
2018-07-12T01:48:55.388Z,14.83
2018-07-12T01:51:22.724Z,14.83
2018-07-12T01:53:50.012Z,14.79
2018-07-12T01:56:17.341Z,14.75
2018-07-12T01:58:44.714Z,14.74
2018-07-12T02:01:12.093Z,14.73
2018-07-12T02:03:39.442Z,14.69
2018-07-12T02:06:06.866Z,14.68
2018-07-12T02:08:34.186Z,14.66
2018-07-12T02:11:01.545Z,14.71
2018-07-12T02:13:28.854Z,14.75
2018-07-12T02:15:56.223Z,14.78
2018-07-12T02:18:23.547Z,14.76
2018-07-12T02:20:50.894Z,14.65
2018-07-12T02:23:18.215Z,14.58
2018-07-12T02:25:45.566Z,14.56
2018-07-12T02:28:12.904Z,14.54
2018-07-12T02:30:40.212Z,14.47
2018-07-12T02:33:07.703Z,14.43
2018-07-12T02:35:35.028Z,14.45
2018-07-12T02:38:02.362Z,14.42
2018-07-12T02:40:29.691Z,14.41
2018-07-12T02:42:56.972Z,14.38
2018-07-12T02:45:24.328Z,14.34
2018-07-12T02:47:51.634Z,14.34
2018-07-12T02:50:18.942Z,14.36
2018-07-12T02:52:47.347Z,14.31
2018-07-12T02:55:14.645Z,14.28
2018-07-12T02:57:42.006Z,14.26
2018-07-12T03:00:09.341Z,14.27
2018-07-12T03:02:36.791Z,14.28
2018-07-12T03:05:04.113Z,14.24
2018-07-12T03:07:31.486Z,14.21
2018-07-12T03:09:58.824Z,14.15
2018-07-12T03:12:26.182Z,14.16
2018-07-12T03:14:53.504Z,14.21
2018-07-12T03:17:20.914Z,14.19
2018-07-12T03:19:48.974Z,14.20
2018-07-12T03:22:16.298Z,14.22
2018-07-12T03:24:44.453Z,14.20
2018-07-12T03:27:11.754Z,14.20
2018-07-12T03:29:39.065Z,14.21
2018-07-12T03:32:06.378Z,14.17
2018-07-12T03:34:33.733Z,14.17
2018-07-12T03:37:01.088Z,14.16
2018-07-12T03:39:28.351Z,14.15
2018-07-12T03:41:55.703Z,14.15
2018-07-12T03:44:23.847Z,14.13
2018-07-12T03:46:51.263Z,14.12
2018-07-12T03:49:18.626Z,14.10
2018-07-12T03:51:45.971Z,14.15
2018-07-12T03:54:13.396Z,14.13
2018-07-12T03:56:40.814Z,14.14
2018-07-12T03:59:08.244Z,14.14
2018-07-12T04:01:35.582Z,14.11
2018-07-12T04:04:02.874Z,14.14
2018-07-12T04:06:30.222Z,14.17
2018-07-12T04:08:57.518Z,14.24
2018-07-12T04:11:24.830Z,14.31
2018-07-12T04:13:52.250Z,14.39
2018-07-12T04:16:19.595Z,14.49
2018-07-12T04:18:46.949Z,14.59
2018-07-12T04:21:14.314Z,14.68
2018-07-12T04:23:41.649Z,14.72
2018-07-12T04:26:08.980Z,14.75
2018-07-12T04:28:36.318Z,14.75
2018-07-12T04:31:03.701Z,14.75
2018-07-12T04:33:31.023Z,14.74
2018-07-12T04:35:58.489Z,14.76
2018-07-12T04:38:25.859Z,14.81
2018-07-12T04:40:53.268Z,14.86
2018-07-12T04:43:20.671Z,14.93
2018-07-12T04:45:48.030Z,14.97
2018-07-12T04:48:15.363Z,14.99
2018-07-12T04:50:42.820Z,15.04
2018-07-12T04:53:10.177Z,15.09
2018-07-12T04:55:37.541Z,15.15
2018-07-12T04:58:04.905Z,15.22
2018-07-12T05:00:32.210Z,15.25
2018-07-12T05:02:59.590Z,15.31
2018-07-12T05:05:27.003Z,15.36
2018-07-12T05:07:54.341Z,15.40
2018-07-12T05:10:21.640Z,15.42
2018-07-12T05:12:49.032Z,15.49
2018-07-12T05:15:16.387Z,15.53
2018-07-12T05:17:43.769Z,15.57
2018-07-12T05:20:11.105Z,15.63
2018-07-12T05:22:38.450Z,15.67
2018-07-12T05:25:05.815Z,15.71
2018-07-12T05:27:33.158Z,15.79
2018-07-12T05:30:00.496Z,15.79
2018-07-12T05:32:27.914Z,15.85
2018-07-12T05:34:55.299Z,15.89
2018-07-12T05:37:24.030Z,15.98
2018-07-12T05:39:52.734Z,16.04
2018-07-12T05:42:21.525Z,16.10
2018-07-12T05:44:50.128Z,16.20
2018-07-12T05:47:18.790Z,16.32
2018-07-12T05:49:47.523Z,16.41
2018-07-12T05:52:16.262Z,16.47
2018-07-12T05:54:45.034Z,16.54
2018-07-12T05:57:13.778Z,16.64
2018-07-12T05:59:42.504Z,16.74
2018-07-12T06:02:17.243Z,16.84
2018-07-12T06:04:45.890Z,16.84
2018-07-12T06:07:15.486Z,16.91
2018-07-12T06:09:44.105Z,16.92
2018-07-12T06:12:12.843Z,16.93
2018-07-12T06:14:41.775Z,17.06
2018-07-12T06:17:10.554Z,17.23
2018-07-12T06:19:39.288Z,17.35
2018-07-12T06:22:08.082Z,17.47
2018-07-12T06:24:36.760Z,17.53
2018-07-12T06:27:05.440Z,17.50
2018-07-12T06:29:34.030Z,17.44
2018-07-12T06:32:02.710Z,17.55
2018-07-12T06:34:31.314Z,17.62
2018-07-12T06:37:00.072Z,17.74
2018-07-12T06:39:28.724Z,17.74
2018-07-12T06:41:58.445Z,17.81
2018-07-12T06:44:27.079Z,17.87
2018-07-12T06:46:55.829Z,18.03
2018-07-12T06:49:24.510Z,18.13
2018-07-12T06:52:06.687Z,18.17
2018-07-12T06:54:35.302Z,18.20
2018-07-12T06:57:03.983Z,18.22
2018-07-12T06:59:32.699Z,18.26
2018-07-12T07:02:01.323Z,18.25
2018-07-12T07:04:29.987Z,18.32
2018-07-12T07:06:58.816Z,18.45
2018-07-12T07:09:28.230Z,18.51
2018-07-12T07:12:01.361Z,18.60
2018-07-12T07:14:30.039Z,18.69
2018-07-12T07:16:58.853Z,18.78
2018-07-12T07:19:27.631Z,18.83
2018-07-12T07:21:56.274Z,18.90
2018-07-12T07:24:24.847Z,18.92
2018-07-12T07:26:53.483Z,19.02
2018-07-12T07:29:22.237Z,19.02
2018-07-12T07:31:51.754Z,19.13
2018-07-12T07:34:20.400Z,19.16
2018-07-12T07:36:49.049Z,19.20
2018-07-12T07:39:24.469Z,19.22
2018-07-12T07:41:53.164Z,19.34
2018-07-12T07:44:21.854Z,19.49
2018-07-12T07:46:50.441Z,19.70
2018-07-12T07:49:19.069Z,19.84
2018-07-12T07:52:14.494Z,19.88
2018-07-12T07:54:43.078Z,20.06
2018-07-12T07:57:11.960Z,20.12
2018-07-12T07:59:40.554Z,20.13
2018-07-12T08:02:18.186Z,20.15
2018-07-12T08:04:46.897Z,20.16
2018-07-12T08:07:15.524Z,20.26
2018-07-12T08:09:44.099Z,20.37
2018-07-12T08:12:16.035Z,20.47
2018-07-12T08:14:44.723Z,20.38
2018-07-12T08:17:13.410Z,20.39
2018-07-12T08:19:42.044Z,20.62
2018-07-12T08:22:27.965Z,20.85
2018-07-12T08:24:56.558Z,20.86
2018-07-12T08:27:25.779Z,20.88
2018-07-12T08:29:54.397Z,20.91
2018-07-12T08:32:36.228Z,20.98
2018-07-12T08:35:04.831Z,21.07
2018-07-12T08:37:33.451Z,21.27
2018-07-12T08:40:02.006Z,21.41
2018-07-12T08:42:35.213Z,21.48
2018-07-12T08:45:03.861Z,21.52
2018-07-12T08:47:32.554Z,21.57
2018-07-12T08:50:01.148Z,21.56
2018-07-12T08:52:40.826Z,21.70
2018-07-12T08:55:09.368Z,21.79
2018-07-12T08:57:37.909Z,21.96
2018-07-12T09:00:06.500Z,22.04
2018-07-12T09:02:42.915Z,22.13
2018-07-12T09:05:11.479Z,22.22
2018-07-12T09:07:40.151Z,22.14
2018-07-12T09:10:08.832Z,22.12
2018-07-12T09:12:45.543Z,22.26
2018-07-12T09:15:14.552Z,22.50
2018-07-12T09:17:43.415Z,22.48
2018-07-12T09:20:12.102Z,22.38
2018-07-12T09:22:49.066Z,22.37
2018-07-12T09:25:17.754Z,22.50
2018-07-12T09:27:46.944Z,22.89
2018-07-12T09:30:16.074Z,23.19
2018-07-12T09:32:44.747Z,23.25
2018-07-12T09:35:13.465Z,23.13
2018-07-12T09:37:42.194Z,23.18
2018-07-12T09:40:10.913Z,23.05
2018-07-12T09:42:39.606Z,22.80
2018-07-12T09:45:08.532Z,22.81
2018-07-12T09:47:37.295Z,22.81
2018-07-12T09:50:05.992Z,22.99
2018-07-12T09:52:45.034Z,23.05
2018-07-12T09:55:13.678Z,23.15
2018-07-12T09:57:53.510Z,23.20
2018-07-12T10:00:26.339Z,23.20
2018-07-12T10:03:05.782Z,23.31
2018-07-12T10:05:39.709Z,23.21
2018-07-12T10:08:22.488Z,23.09
2018-07-12T10:10:56.373Z,23.11
2018-07-12T10:13:51.327Z,23.46
2018-07-12T10:16:25.650Z,24.18
2018-07-12T10:18:54.356Z,24.64
2018-07-12T10:21:22.992Z,24.81
2018-07-12T10:23:53.742Z,24.92
2018-07-12T10:26:22.361Z,24.73
2018-07-12T10:28:51.145Z,24.73
2018-07-12T10:31:19.999Z,24.37
2018-07-12T10:33:48.878Z,24.33
2018-07-12T10:36:17.647Z,24.42
2018-07-12T10:38:46.326Z,24.46
2018-07-12T10:41:14.967Z,24.54
2018-07-12T10:44:00.400Z,24.64
2018-07-12T10:46:28.998Z,25.00
2018-07-12T10:48:57.660Z,25.31
2018-07-12T10:51:26.459Z,25.21
2018-07-12T10:53:57.179Z,24.84
2018-07-12T10:56:25.835Z,24.87
2018-07-12T10:58:54.557Z,25.23
2018-07-12T11:01:23.399Z,25.33
2018-07-12T11:03:55.703Z,25.63
2018-07-12T11:06:24.330Z,25.55
2018-07-12T11:08:53.059Z,25.54
2018-07-12T11:11:21.847Z,25.21
2018-07-12T11:13:54.830Z,25.28
2018-07-12T11:16:23.536Z,25.31
2018-07-12T11:18:52.247Z,25.22
2018-07-12T11:21:21.108Z,25.12
2018-07-12T11:23:49.796Z,25.30
2018-07-12T11:26:18.500Z,25.52
2018-07-12T11:28:47.127Z,25.84
2018-07-12T11:31:15.749Z,26.27
2018-07-12T11:33:46.442Z,26.62
2018-07-12T11:36:15.082Z,26.50
2018-07-12T11:38:44.656Z,26.56
2018-07-12T11:41:13.570Z,26.43
2018-07-12T11:43:45.881Z,26.30
2018-07-12T11:46:15.719Z,26.19
2018-07-12T11:48:45.092Z,26.06
2018-07-12T11:51:13.854Z,25.88
2018-07-12T11:53:45.792Z,25.75
2018-07-12T11:56:14.474Z,25.69
2018-07-12T11:58:43.140Z,25.84
2018-07-12T12:01:11.791Z,26.04
2018-07-12T12:03:41.468Z,26.28
2018-07-12T12:06:10.094Z,26.81
2018-07-12T12:08:38.689Z,27.23
2018-07-12T12:11:07.325Z,27.46
2018-07-12T12:13:37.038Z,27.77
2018-07-12T12:16:05.882Z,27.95
2018-07-12T12:18:34.640Z,28.05
2018-07-12T12:21:03.307Z,27.98
2018-07-12T12:23:32.059Z,27.95
2018-07-12T12:26:00.698Z,27.88
2018-07-12T12:28:29.318Z,27.96
2018-07-12T12:30:57.974Z,28.33
2018-07-12T12:33:26.534Z,28.73
2018-07-12T12:35:57.549Z,28.20
2018-07-12T12:38:26.438Z,27.67
2018-07-12T12:40:55.075Z,27.69
2018-07-12T12:43:23.653Z,28.84
2018-07-12T12:45:54.414Z,31.17
2018-07-12T12:48:23.140Z,33.01
2018-07-12T12:50:51.755Z,33.63
2018-07-12T12:53:21.316Z,33.72
2018-07-12T12:55:49.977Z,33.96
2018-07-12T12:58:19.026Z,32.79
2018-07-12T13:00:47.773Z,32.86
2018-07-12T13:03:16.414Z,31.29
2018-07-12T13:05:46.052Z,30.49
2018-07-12T13:08:14.703Z,32.12
2018-07-12T13:10:43.392Z,33.00
2018-07-12T13:13:12.032Z,33.26
2018-07-12T13:15:40.706Z,32.67
2018-07-12T13:18:09.399Z,33.45
2018-07-12T13:20:37.979Z,34.74
2018-07-12T13:23:06.614Z,35.08
2018-07-12T13:25:37.497Z,35.63
2018-07-12T13:28:06.201Z,34.62
2018-07-12T13:30:34.825Z,34.15
2018-07-12T13:33:03.416Z,31.81
2018-07-12T13:35:39.152Z,30.29
2018-07-12T13:38:07.882Z,30.07
2018-07-12T13:40:36.429Z,32.26
2018-07-12T13:43:05.045Z,33.80
2018-07-12T13:45:34.813Z,32.84
2018-07-12T13:48:03.441Z,31.41
2018-07-12T13:50:32.137Z,30.89
2018-07-12T13:53:00.796Z,30.53
2018-07-12T13:55:41.896Z,30.13
2018-07-12T13:58:10.696Z,29.35
2018-07-12T14:00:39.338Z,31.07
2018-07-12T14:03:08.001Z,33.62
2018-07-12T14:05:53.425Z,35.47
2018-07-12T14:08:22.116Z,37.58
2018-07-12T14:10:50.940Z,36.07
2018-07-12T14:13:19.587Z,36.09
2018-07-12T14:15:49.438Z,37.06
2018-07-12T14:18:18.060Z,36.21
2018-07-12T14:20:46.738Z,36.12
2018-07-12T14:23:15.508Z,34.99
2018-07-12T14:25:53.935Z,36.32
2018-07-12T14:28:22.690Z,37.69
2018-07-12T14:30:51.565Z,38.32
2018-07-12T14:33:20.470Z,39.51
2018-07-12T14:35:51.425Z,39.29
2018-07-12T14:38:20.296Z,39.26
2018-07-12T14:40:49.014Z,38.47
2018-07-12T14:43:17.640Z,37.80
2018-07-12T14:45:47.363Z,38.35
2018-07-12T14:48:16.009Z,38.73
2018-07-12T14:50:44.628Z,36.51
2018-07-12T14:53:13.167Z,35.62
2018-07-12T14:55:58.347Z,34.31
2018-07-12T14:58:26.955Z,32.55
2018-07-12T15:00:55.670Z,31.50
2018-07-12T15:03:24.490Z,33.36
2018-07-12T15:05:54.178Z,35.84
2018-07-12T15:08:22.817Z,37.31
2018-07-12T15:10:51.455Z,38.37
2018-07-12T15:13:20.148Z,35.95
2018-07-12T15:15:52.443Z,34.10
2018-07-12T15:18:21.330Z,33.44
2018-07-12T15:20:49.976Z,34.27
2018-07-12T15:23:18.809Z,36.17
2018-07-12T15:25:49.872Z,37.31
2018-07-12T15:28:18.518Z,38.59
2018-07-12T15:30:47.252Z,38.02
2018-07-12T15:33:16.058Z,36.33
2018-07-12T15:35:44.782Z,34.71
2018-07-12T15:38:13.393Z,33.15
2018-07-12T15:40:42.064Z,31.90
2018-07-12T15:43:10.694Z,30.87
2018-07-12T15:45:39.601Z,30.01
2018-07-12T15:48:08.232Z,29.13
2018-07-12T15:50:36.925Z,28.29
2018-07-12T15:53:05.625Z,27.92
2018-07-12T15:55:34.376Z,27.79
2018-07-12T15:58:03.104Z,27.55
2018-07-12T16:00:31.909Z,27.19
2018-07-12T16:03:00.881Z,26.93
2018-07-12T16:05:29.522Z,26.85
2018-07-12T16:07:59.303Z,26.58
2018-07-12T16:10:28.122Z,25.82
2018-07-12T16:12:56.933Z,25.13
2018-07-12T16:15:25.566Z,24.68
2018-07-12T16:18:02.891Z,24.35
2018-07-12T16:20:31.567Z,24.43
2018-07-12T16:23:00.195Z,24.70
2018-07-12T16:25:28.897Z,24.70
2018-07-12T16:28:01.314Z,24.53
2018-07-12T16:30:30.039Z,24.39
2018-07-12T16:32:58.727Z,24.26
2018-07-12T16:35:27.461Z,24.10
2018-07-12T16:37:57.214Z,23.70
2018-07-12T16:40:25.782Z,23.59
2018-07-12T16:42:54.445Z,23.49
2018-07-12T16:45:23.146Z,23.40
2018-07-12T16:47:51.798Z,23.36
2018-07-12T16:50:20.446Z,23.31
2018-07-12T16:52:49.103Z,23.27
2018-07-12T16:55:17.853Z,23.19
2018-07-12T16:57:46.612Z,23.16
2018-07-12T17:00:19.143Z,23.08
2018-07-12T17:02:49.111Z,23.02
2018-07-12T17:05:17.992Z,22.98
2018-07-12T17:07:46.659Z,22.96
2018-07-12T17:10:15.421Z,22.89
2018-07-12T17:12:44.251Z,22.82
2018-07-12T17:15:12.976Z,22.81
2018-07-12T17:17:41.792Z,22.83
2018-07-12T17:20:10.399Z,22.85
2018-07-12T17:22:39.130Z,22.87
2018-07-12T17:25:08.002Z,22.90
2018-07-12T17:27:36.759Z,22.92
2018-07-12T17:30:05.547Z,22.92
2018-07-12T17:32:34.309Z,22.93
2018-07-12T17:35:02.955Z,22.95
2018-07-12T17:37:31.671Z,22.96
2018-07-12T17:40:00.368Z,22.99
2018-07-12T17:42:29.110Z,23.67
2018-07-12T17:44:57.954Z,25.15
2018-07-12T17:47:26.733Z,26.71
2018-07-12T17:49:55.463Z,27.90
2018-07-12T17:52:24.206Z,27.83
2018-07-12T17:54:52.931Z,27.29
2018-07-12T17:57:21.675Z,26.76
2018-07-12T17:59:50.254Z,26.45
2018-07-12T18:02:19.002Z,26.51
2018-07-12T18:04:47.709Z,26.85
2018-07-12T18:07:16.399Z,27.49
2018-07-12T18:09:45.134Z,28.12
2018-07-12T18:12:14.129Z,28.37
2018-07-12T18:14:43.145Z,28.03
2018-07-12T18:17:11.948Z,27.71
2018-07-12T18:19:40.630Z,27.44
2018-07-12T18:22:09.342Z,27.24
2018-07-12T18:24:38.082Z,26.99
2018-07-12T18:27:06.833Z,26.67
2018-07-12T18:29:35.452Z,26.33
2018-07-12T18:32:04.156Z,25.78
2018-07-12T18:34:32.907Z,25.13
2018-07-12T18:37:01.617Z,24.37
2018-07-12T18:39:30.254Z,23.71
2018-07-12T18:41:58.959Z,23.46
2018-07-12T18:44:28.866Z,23.30
2018-07-12T18:46:57.501Z,23.25
2018-07-12T18:49:26.284Z,23.09
2018-07-12T18:51:55.068Z,22.81
2018-07-12T18:54:23.789Z,22.55
2018-07-12T18:56:52.380Z,22.23
2018-07-12T18:59:24.153Z,21.90
2018-07-12T19:01:52.752Z,21.62
2018-07-12T19:04:21.380Z,21.40
2018-07-12T19:06:49.975Z,21.20
2018-07-12T19:09:18.663Z,20.97
2018-07-12T19:11:47.315Z,20.73
2018-07-12T19:14:16.056Z,20.45
2018-07-12T19:16:44.766Z,20.16
2018-07-12T19:19:13.456Z,19.93
2018-07-12T19:21:42.280Z,19.71
2018-07-12T19:24:11.023Z,19.49
2018-07-12T19:26:39.712Z,19.32
2018-07-12T19:29:08.688Z,19.15
2018-07-12T19:31:37.414Z,18.97
2018-07-12T19:34:06.130Z,18.80
2018-07-12T19:36:34.751Z,18.74
2018-07-12T19:39:04.336Z,18.76
2018-07-12T19:41:32.977Z,18.92
2018-07-12T19:44:01.762Z,19.07
2018-07-12T19:46:30.475Z,19.31
2018-07-12T19:49:00.256Z,19.51
2018-07-12T19:51:29.192Z,19.73
2018-07-12T19:53:58.015Z,19.86
2018-07-12T19:56:26.687Z,19.89
2018-07-12T19:58:55.410Z,19.93
2018-07-12T20:01:24.036Z,19.91
2018-07-12T20:03:52.726Z,19.84
2018-07-12T20:06:21.368Z,19.73
2018-07-12T20:08:50.101Z,19.67
2018-07-12T20:11:18.792Z,19.55
2018-07-12T20:13:47.483Z,19.49
2018-07-12T20:16:16.220Z,19.51
2018-07-12T20:18:44.906Z,19.41
2018-07-12T20:21:13.688Z,19.38
2018-07-12T20:23:42.509Z,19.37
2018-07-12T20:26:11.251Z,19.27
2018-07-12T20:28:41.021Z,19.27
2018-07-12T20:31:10.567Z,19.30
2018-07-12T20:33:39.629Z,19.31
2018-07-12T20:36:08.363Z,19.33
2018-07-12T20:38:37.168Z,19.28
2018-07-12T20:41:05.916Z,19.26
2018-07-12T20:43:34.554Z,19.13
2018-07-12T20:46:03.399Z,18.84
2018-07-12T20:48:32.197Z,18.50
2018-07-12T20:51:00.916Z,18.10
2018-07-12T20:53:29.732Z,17.79
2018-07-12T20:55:58.596Z,17.54
2018-07-12T20:58:27.362Z,17.31
2018-07-12T21:00:56.181Z,17.24
2018-07-12T21:03:24.858Z,17.44
2018-07-12T21:05:53.506Z,17.54
2018-07-12T21:08:22.191Z,17.47
2018-07-12T21:10:51.499Z,17.43
2018-07-12T21:13:20.188Z,17.69
2018-07-12T21:15:48.876Z,17.76
2018-07-12T21:18:17.540Z,18.01
2018-07-12T21:20:46.204Z,18.24
2018-07-12T21:23:14.949Z,18.40
2018-07-12T21:25:43.533Z,18.55
2018-07-12T21:28:12.158Z,18.61
2018-07-12T21:30:40.878Z,18.53
2018-07-12T21:33:09.819Z,18.35
2018-07-12T21:35:38.436Z,18.18
2018-07-12T21:38:07.166Z,18.03
2018-07-12T21:40:35.867Z,17.95
2018-07-12T21:43:04.553Z,17.79
2018-07-12T21:45:33.151Z,17.78
2018-07-12T21:48:01.919Z,17.80
2018-07-12T21:50:30.625Z,17.87
2018-07-12T21:52:59.323Z,17.86
2018-07-12T21:55:28.426Z,17.89
2018-07-12T21:57:57.033Z,17.82
2018-07-12T22:00:25.827Z,17.74
2018-07-12T22:02:54.665Z,17.58
2018-07-12T22:05:23.497Z,17.49
2018-07-12T22:08:03.167Z,17.52
2018-07-12T22:10:31.947Z,17.56
2018-07-12T22:13:00.630Z,17.55
2018-07-12T22:15:29.315Z,17.45
2018-07-12T22:17:57.853Z,17.31
2018-07-12T22:20:26.527Z,17.20
2018-07-12T22:22:55.309Z,16.96
2018-07-12T22:25:24.046Z,16.78
2018-07-12T22:27:53.059Z,16.67
2018-07-12T22:30:21.798Z,16.73
2018-07-12T22:32:50.287Z,16.90
2018-07-12T22:35:19.026Z,16.88
2018-07-12T22:37:48.114Z,16.88
2018-07-12T22:40:16.787Z,16.82
2018-07-12T22:42:45.482Z,16.68
2018-07-12T22:45:14.191Z,16.62
2018-07-12T22:47:49.843Z,16.48
2018-07-12T22:50:18.685Z,16.50
2018-07-12T22:52:47.652Z,16.56
2018-07-12T22:55:16.930Z,16.50
2018-07-12T22:57:45.510Z,16.43
2018-07-12T23:00:14.207Z,16.38
2018-07-12T23:02:43.563Z,16.36
2018-07-12T23:05:12.059Z,16.43
2018-07-12T23:07:41.036Z,16.33
2018-07-12T23:10:09.614Z,16.30
2018-07-12T23:12:38.167Z,16.22
2018-07-12T23:15:06.844Z,16.02
2018-07-12T23:17:35.446Z,15.87
2018-07-12T23:20:05.018Z,15.77
2018-07-12T23:22:33.640Z,15.62
2018-07-12T23:25:02.369Z,15.51
2018-07-12T23:27:30.985Z,15.41
2018-07-12T23:30:00.089Z,15.34
2018-07-12T23:32:28.815Z,15.31
2018-07-12T23:34:57.430Z,15.19
2018-07-12T23:37:26.405Z,15.18
2018-07-12T23:39:54.931Z,15.10
2018-07-12T23:42:23.790Z,15.02
2018-07-12T23:44:52.422Z,15.08
2018-07-12T23:47:21.141Z,15.09
2018-07-12T23:49:49.905Z,15.08
2018-07-12T23:52:18.729Z,15.05
2018-07-12T23:54:47.401Z,14.93
2018-07-12T23:57:16.110Z,14.80
2018-07-12T23:59:44.799Z,14.62
